Time;durP1;ratioP1;P1;durP2;ratioP2;P2;SDS_P1;SDS_P2;PMS_P1;PMS_P2;Temp;Humidity;BMP_temperature;BMP_pressure;BME280_temperature;BME280_humidity;BME280_pressure;Samples;Min_cycle;Max_cycle;Signal;HPM_P1;HPM_P2
2022/07/21 15:19:40;;;;;;;5.72;3.15;;;40.10;29.60;;;;;;5061268;28;20850;-74
2022/07/21 15:22:07;;;;;;;4.32;2.97;;;40.40;29.30;;;;;;5046993;28;20034;-74
2022/07/21 15:24:32;;;;;;;4.18;3.47;;;40.10;29.30;;;;;;5046990;28;20013;-74
2022/07/21 15:26:58;;;;;;;4.85;3.25;;;39.90;29.00;;;;;;5046875;28;20528;-74
2022/07/21 15:29:24;;;;;;;3.70;3.38;;;40.00;28.80;;;;;;5026482;28;20057;-74
2022/07/21 15:31:49;;;;;;;3.40;3.10;;;40.00;28.40;;;;;;5024255;28;20025;-74
2022/07/21 15:34:15;;;;;;;2.90;2.75;;;39.80;28.70;;;;;;5024692;28;20018;-74
2022/07/21 15:36:41;;;;;;;4.57;3.30;;;40.20;29.60;;;;;;5023941;28;20030;-74
2022/07/21 15:39:07;;;;;;;3.15;2.88;;;40.60;29.60;;;;;;5024778;28;20025;-74
2022/07/21 15:41:38;;;;;;;3.33;3.00;;;40.70;28.90;;;;;;5022781;28;20029;-74
2022/07/21 15:44:04;;;;;;;8.82;3.20;;;41.00;28.90;;;;;;5023807;28;20525;-75
2022/07/21 15:46:30;;;;;;;3.03;2.78;;;40.90;28.40;;;;;;5036678;28;20017;-74
2022/07/21 15:48:55;;;;;;;3.13;2.83;;;40.80;28.20;;;;;;5035005;28;20036;-74
2022/07/21 15:51:23;;;;;;;2.92;2.80;;;40.90;28.40;;;;;;5036520;28;20029;-74
2022/07/21 15:53:49;;;;;;;4.22;2.80;;;41.20;28.60;;;;;;5039158;28;20037;-74
2022/07/21 15:56:15;;;;;;;5.32;3.25;;;41.40;28.50;;;;;;5037163;28;20037;-73
2022/07/21 15:59:33;;;;;;;4.32;3.92;;;41.30;27.70;;;;;;5029226;28;20113;-74
2022/07/21 16:01:27;;;;;;;3.35;3.08;;;41.40;27.90;;;;;;5027918;28;20037;-74
2022/07/21 16:03:53;;;;;;;4.95;2.72;;;41.40;27.80;;;;;;5027745;28;20078;-74
2022/07/21 16:06:19;;;;;;;3.40;3.13;;;41.60;27.80;;;;;;5025723;28;20018;-74
2022/07/21 16:08:48;;;;;;;3.28;2.85;;;41.70;27.80;;;;;;5026451;28;20025;-74
2022/07/21 16:11:19;;;;;;;4.47;3.85;;;41.60;26.90;;;;;;5027887;28;20032;-74
2022/07/21 16:13:45;;;;;;;;;;;41.10;27.30;;;;;;5027610;28;20028;-74
2022/07/21 16:16:11;;;;;;;4.13;3.05;;;41.30;27.30;;;;;;5024784;28;20007;-74
2022/07/21 16:18:36;;;;;;;3.70;3.05;;;41.30;27.20;;;;;;5039309;28;20045;-74
2022/07/21 16:21:03;;;;;;;3.80;3.42;;;41.50;27.90;;;;;;5045840;28;20045;-74
2022/07/21 16:23:28;;;;;;;7.63;4.22;;;41.60;27.70;;;;;;5047551;28;20021;-74
2022/07/21 16:25:54;;;;;;;3.88;3.60;;;41.70;27.70;;;;;;5047524;28;20027;-74
2022/07/21 16:28:20;;;;;;;3.90;2.83;;;42.00;28.10;;;;;;5047715;28;20033;-74
2022/07/21 16:30:46;;;;;;;3.63;3.33;;;42.00;27.90;;;;;;5035746;28;20072;-74
2022/07/21 16:33:11;;;;;;;3.92;2.88;;;41.80;27.60;;;;;;5034778;28;20079;-74
2022/07/21 16:35:37;;;;;;;3.60;3.30;;;41.90;27.80;;;;;;5034657;28;20048;-74
2022/07/21 16:38:03;;;;;;;6.25;3.13;;;41.90;28.20;;;;;;5034602;28;20071;-74
2022/07/21 16:40:29;;;;;;;3.85;3.40;;;41.90;28.10;;;;;;5034914;28;20037;-74
2022/07/21 16:42:54;;;;;;;3.22;3.00;;;41.90;27.80;;;;;;5034750;28;20033;-74
2022/07/21 16:45:21;;;;;;;4.05;2.88;;;42.00;27.60;;;;;;5017286;28;20021;-74
2022/07/21 16:47:47;;;;;;;4.47;3.17;;;41.80;27.90;;;;;;5034788;28;20039;-74
2022/07/21 16:50:14;;;;;;;7.38;2.88;;;41.80;27.50;;;;;;5034716;28;20483;-74
2022/07/21 16:52:40;;;;;;;4.28;3.03;;;41.50;27.00;;;;;;5034107;28;20394;-74
2022/07/21 16:55:06;;;;;;;4.20;2.80;;;41.80;28.20;;;;;;5034488;28;20033;-74
2022/07/21 16:57:32;;;;;;;3.10;2.90;;;42.00;28.70;;;;;;5034132;28;20090;-74
2022/07/21 16:59:58;;;;;;;4.85;3.00;;;42.20;28.50;;;;;;5034050;28;20526;-74
2022/07/21 17:02:23;;;;;;;3.08;2.88;;;42.20;28.20;;;;;;5034234;28;20340;-74
2022/07/21 17:04:49;;;;;;;4.22;3.13;;;42.30;28.30;;;;;;5034189;28;20474;-74
2022/07/21 17:07:16;;;;;;;4.30;2.88;;;42.10;27.80;;;;;;5033728;28;20372;-74
2022/07/21 17:09:43;;;;;;;5.07;3.42;;;41.60;27.60;;;;;;5033804;28;20485;-74
2022/07/21 17:12:09;;;;;;;3.72;3.28;;;41.60;28.30;;;;;;5016064;28;20071;-74
2022/07/21 17:14:35;;;;;;;3.60;3.30;;;41.50;28.70;;;;;;5015950;28;20021;-74
2022/07/21 17:17:00;;;;;;;3.30;3.00;;;41.40;28.80;;;;;;5015854;28;20036;-74
2022/07/21 17:19:27;;;;;;;8.25;3.15;;;41.50;29.20;;;;;;5033666;28;20072;-75
2022/07/21 17:21:52;;;;;;;6.38;3.30;;;41.40;29.30;;;;;;5015862;28;20044;-74
2022/07/21 17:24:18;;;;;;;6.68;2.95;;;41.30;29.00;;;;;;5033454;28;20472;-74
2022/07/21 17:26:44;;;;;;;3.92;3.10;;;40.80;29.10;;;;;;5033521;28;20026;-74
2022/07/21 17:29:10;;;;;;;4.50;3.17;;;40.50;30.00;;;;;;5043349;28;20028;-74
2022/07/21 17:31:36;;;;;;;7.13;3.90;;;40.20;30.30;;;;;;5073363;28;20024;-74
2022/07/21 17:34:01;;;;;;;8.75;3.45;;;39.90;30.70;;;;;;5073334;28;20028;-74
2022/07/21 17:36:30;;;;;;;6.80;3.35;;;39.70;31.50;;;;;;5073255;28;20085;-74
2022/07/21 17:38:56;;;;;;;4.30;3.20;;;39.60;31.60;;;;;;5073175;28;20478;-74
2022/07/21 17:41:22;;;;;;;6.95;3.17;;;39.50;31.70;;;;;;5071717;28;20150;-74
2022/07/21 17:43:47;;;;;;;7.20;2.80;;;39.40;31.90;;;;;;5072629;28;20021;-74
2022/07/21 17:46:13;;;;;;;7.70;3.53;;;39.10;32.40;;;;;;5072781;28;20108;-76
2022/07/21 17:48:41;;;;;;;7.28;3.17;;;39.00;32.70;;;;;;5054771;28;20039;-76
2022/07/21 17:51:12;;;;;;;5.40;2.90;;;38.20;33.00;;;;;;5054897;28;20370;-76
2022/07/21 17:53:39;;;;;;;5.07;3.35;;;37.90;33.60;;;;;;5054784;28;20036;-76
2022/07/21 17:56:05;;;;;;;3.20;2.90;;;37.70;34.50;;;;;;5054675;28;20617;-76
2022/07/21 17:58:43;;;;;;;4.40;2.80;;;37.40;34.90;;;;;;5044096;28;20482;-76
2022/07/21 18:01:11;;;;;;;7.75;3.28;;;37.20;35.10;;;;;;5052496;28;20104;-76
2022/07/21 18:03:37;;;;;;;6.18;2.97;;;37.00;35.40;;;;;;5052551;28;20049;-76
2022/07/21 18:06:04;;;;;;;3.55;3.22;;;36.80;35.70;;;;;;5052387;28;20060;-76
2022/07/21 18:08:30;;;;;;;6.30;3.50;;;36.50;36.00;;;;;;5052687;28;20439;-76
2022/07/21 18:10:56;;;;;;;3.60;3.20;;;36.30;36.30;;;;;;5052585;28;20057;-76
2022/07/21 18:13:21;;;;;;;4.65;3.88;;;36.10;36.70;;;;;;5052787;28;20112;-76
2022/07/21 18:15:47;;;;;;;4.28;3.95;;;35.90;37.00;;;;;;5046021;28;20017;-76
2022/07/21 18:18:13;;;;;;;3.38;3.08;;;35.70;37.30;;;;;;5032470;28;20049;-76
2022/07/21 18:20:39;;;;;;;4.00;3.05;;;35.40;37.70;;;;;;5032586;28;20022;-76
2022/07/21 18:23:05;;;;;;;6.00;3.28;;;35.30;37.90;;;;;;5032300;28;20033;-76
2022/07/21 18:26:20;;;;;;;5.25;3.17;;;35.10;37.80;;;;;;5130037;27;20096;-77
2022/07/21 18:28:46;;;;;;;6.25;3.53;;;35.00;38.80;;;;;;5111543;28;20033;-77
2022/07/21 18:31:13;;;;;;;5.10;4.07;;;34.80;39.10;;;;;;5129988;28;20023;-77
2022/07/21 18:33:38;;;;;;;4.57;3.63;;;34.70;39.80;;;;;;5111793;28;20029;-77
2022/07/21 18:36:05;;;;;;;7.70;4.20;;;34.50;39.80;;;;;;5111789;28;20027;-77
2022/07/21 18:38:30;;;;;;;15.77;6.32;;;34.40;39.90;;;;;;5129646;28;20385;-77
2022/07/21 18:40:56;;;;;;;15.13;8.48;;;34.40;40.10;;;;;;5111748;28;20027;-77
2022/07/21 18:43:22;;;;;;;14.77;9.82;;;34.30;40.30;;;;;;5129745;28;20032;-77
2022/07/21 18:45:47;;;;;;;23.10;11.93;;;34.30;40.50;;;;;;5129608;28;20042;-77
2022/07/21 18:48:13;;;;;;;30.23;13.48;;;34.20;40.50;;;;;;5129909;28;20361;-77
2022/07/21 18:50:39;;;;;;;24.42;12.82;;;34.10;40.70;;;;;;5108797;22;20056;-75
2022/07/21 18:53:05;;;;;;;23.65;12.85;;;33.90;41.00;;;;;;5087446;28;20120;-75
2022/07/21 18:55:31;;;;;;;20.90;11.93;;;33.80;41.40;;;;;;5087158;28;20020;-75
2022/07/21 18:57:56;;;;;;;23.15;12.35;;;33.60;41.60;;;;;;5086871;28;20056;-75
2022/07/21 19:00:25;;;;;;;25.23;12.70;;;33.50;41.90;;;;;;5087238;28;20033;-75
2022/07/21 19:02:51;;;;;;;19.58;11.25;;;33.40;42.10;;;;;;5087212;28;20032;-75
2022/07/21 19:05:17;;;;;;;25.40;12.35;;;33.20;42.30;;;;;;5086977;28;20029;-75
2022/07/21 19:07:44;;;;;;;21.65;10.55;;;33.10;42.60;;;;;;5088369;28;20103;-75
2022/07/21 19:10:10;;;;;;;18.13;10.30;;;33.00;42.90;;;;;;5087922;28;20059;-75
2022/07/21 19:12:36;;;;;;;20.00;10.07;;;32.80;43.10;;;;;;5087020;28;20028;-75
2022/07/21 19:15:02;;;;;;;14.52;8.13;;;32.70;43.30;;;;;;5088191;28;20016;-75
2022/07/21 19:17:28;;;;;;;11.15;7.40;;;32.60;43.40;;;;;;5086800;28;20046;-75
2022/07/21 19:19:54;;;;;;;13.93;7.78;;;32.60;43.60;;;;;;5086648;28;20548;-75
2022/07/21 19:22:20;;;;;;;11.50;6.45;;;32.50;43.80;;;;;;5087833;28;20030;-75
2022/07/21 19:24:45;;;;;;;13.43;7.18;;;32.40;44.10;;;;;;5087948;28;20039;-75
2022/07/21 19:27:11;;;;;;;9.75;6.78;;;32.30;44.10;;;;;;5087969;28;20020;-75
2022/07/21 19:29:37;;;;;;;13.07;7.00;;;32.30;44.20;;;;;;5088002;28;20477;-75
2022/07/21 19:32:07;;;;;;;13.10;6.65;;;32.20;44.50;;;;;;5087726;28;20016;-75
2022/07/21 19:34:32;;;;;;;10.43;6.90;;;32.10;44.60;;;;;;5087749;28;20020;-75
2022/07/21 19:36:58;;;;;;;7.65;6.35;;;32.10;44.70;;;;;;5078421;28;20031;-75
2022/07/21 19:39:24;;;;;;;10.00;6.40;;;32.10;44.60;;;;;;5074372;28;20047;-75
2022/07/21 19:41:49;;;;;;;8.73;5.80;;;32.00;44.90;;;;;;5074103;28;20086;-75
2022/07/21 19:44:15;;;;;;;13.73;6.45;;;31.90;45.30;;;;;;5074280;28;20047;-75
2022/07/21 19:46:41;;;;;;;8.65;6.25;;;31.70;45.30;;;;;;5073972;28;20500;-75
2022/07/21 19:49:07;;;;;;;13.10;5.90;;;31.80;45.60;;;;;;5074286;28;20504;-75
2022/07/21 19:51:32;;;;;;;9.60;7.00;;;31.70;45.70;;;;;;5072551;28;20052;-75
2022/07/21 19:53:59;;;;;;;10.63;6.55;;;31.60;46.00;;;;;;5074160;28;20016;-75
2022/07/21 19:56:24;;;;;;;9.82;6.63;;;31.50;46.30;;;;;;5073977;28;20135;-75
2022/07/21 19:58:50;;;;;;;12.20;7.40;;;31.40;46.70;;;;;;5060559;28;20300;-75
2022/07/21 20:01:16;;;;;;;15.88;9.23;;;31.30;46.70;;;;;;5053850;28;20104;-75
2022/07/21 20:03:42;;;;;;;11.07;8.02;;;31.30;46.90;;;;;;5053845;28;20492;-75
2022/07/21 20:06:07;;;;;;;9.57;8.13;;;31.20;47.30;;;;;;5053756;28;20596;-75
2022/07/21 20:08:33;;;;;;;16.25;8.18;;;31.00;47.60;;;;;;5054920;28;20776;-75
2022/07/21 20:10:59;;;;;;;14.13;7.63;;;31.00;48.50;;;;;;5054974;28;20171;-75
2022/07/21 20:13:25;;;;;;;9.30;6.68;;;31.00;47.90;;;;;;5053757;28;20079;-75
2022/07/21 20:15:50;;;;;;;11.57;6.38;;;30.90;48.00;;;;;;5053392;28;20474;-75
2022/07/21 20:18:16;;;;;;;11.70;6.68;;;31.00;48.10;;;;;;5053678;28;20049;-75
2022/07/21 20:20:42;;;;;;;11.73;6.97;;;30.90;48.40;;;;;;5053468;28;20406;-75
2022/07/21 20:23:09;;;;;;;10.52;6.65;;;30.80;48.50;;;;;;5053594;28;20108;-75
2022/07/21 20:25:35;;;;;;;10.05;6.80;;;30.80;48.70;;;;;;5053243;28;20063;-75
2022/07/21 20:28:01;;;;;;;12.32;6.55;;;30.70;48.80;;;;;;5053452;28;20103;-75
2022/07/21 20:30:27;;;;;;;11.75;7.05;;;30.70;49.10;;;;;;5053330;28;20104;-75
2022/07/21 20:32:54;;;;;;;17.13;8.40;;;30.50;49.20;;;;;;5053182;28;20047;-75
2022/07/21 20:35:20;;;;;;;16.55;8.05;;;30.50;49.60;;;;;;5051975;28;20028;-75
2022/07/21 20:37:47;;;;;;;12.25;7.13;;;30.40;49.50;;;;;;5053012;28;20043;-75
2022/07/21 20:40:14;;;;;;;10.60;6.53;;;30.40;49.70;;;;;;5053307;28;20029;-75
2022/07/21 20:42:40;;;;;;;7.40;5.80;;;30.30;49.90;;;;;;5053120;28;20025;-75
2022/07/21 20:45:07;;;;;;;12.35;5.75;;;30.20;50.00;;;;;;5053123;28;20094;-75
2022/07/21 20:47:33;;;;;;;9.07;5.75;;;30.30;50.40;;;;;;5050618;28;20109;-75
2022/07/21 20:49:58;;;;;;;11.35;6.95;;;30.30;50.40;;;;;;5052634;28;20025;-76
2022/07/21 20:52:24;;;;;;;14.10;7.75;;;30.10;50.30;;;;;;5051650;28;20040;-75
2022/07/21 20:54:50;;;;;;;15.13;7.15;;;30.00;50.40;;;;;;5052963;28;20031;-75
2022/07/21 20:57:17;;;;;;;12.45;6.63;;;30.00;50.50;;;;;;5052657;28;20040;-75
2022/07/21 20:59:43;;;;;;;7.82;5.93;;;29.90;50.60;;;;;;5052912;28;20027;-75
2022/07/21 21:02:09;;;;;;;9.32;5.65;;;29.90;50.80;;;;;;5051481;28;20036;-75
2022/07/21 21:04:35;;;;;;;9.15;5.95;;;29.90;50.70;;;;;;5051156;28;20033;-75
2022/07/21 21:07:01;;;;;;;11.25;5.55;;;29.80;50.70;;;;;;5052633;28;20045;-75
2022/07/21 21:09:27;;;;;;;6.85;5.47;;;29.60;51.00;;;;;;5052778;28;20032;-75
2022/07/21 21:11:53;;;;;;;8.90;6.00;;;29.50;51.10;;;;;;5052544;28;20009;-75
2022/07/21 21:14:18;;;;;;;11.30;5.10;;;29.60;51.30;;;;;;5052430;28;20036;-75
2022/07/21 21:16:44;;;;;;;6.93;5.15;;;29.50;51.20;;;;;;5057023;28;20185;-75
2022/07/21 21:19:10;;;;;;;5.95;5.07;;;29.50;51.10;;;;;;5071124;28;20503;-76
2022/07/21 21:21:36;;;;;;;8.25;4.97;;;29.50;51.20;;;;;;5072362;28;20039;-75
2022/07/21 21:24:01;;;;;;;6.65;5.15;;;29.50;51.10;;;;;;5067791;28;20086;-76
2022/07/21 21:26:27;;;;;;;8.18;5.75;;;29.50;51.10;;;;;;5073193;28;20020;-75
2022/07/21 21:28:53;;;;;;;11.90;5.93;;;29.40;51.30;;;;;;5073139;28;20107;-75
2022/07/21 21:31:19;;;;;;;5.95;5.38;;;29.30;51.60;;;;;;5071593;28;20096;-75
2022/07/21 21:33:44;;;;;;;8.55;6.15;;;29.20;51.70;;;;;;5072072;28;20052;-75
2022/07/21 21:36:10;;;;;;;8.35;5.38;;;29.10;51.80;;;;;;5072131;28;20028;-75
2022/07/21 21:38:36;;;;;;;6.18;5.47;;;29.10;51.90;;;;;;5070883;28;20040;-75
2022/07/21 21:41:02;;;;;;;9.85;5.88;;;29.00;52.10;;;;;;5071960;28;20070;-75
2022/07/21 21:43:27;;;;;;;9.88;6.95;;;29.00;52.10;;;;;;5072284;28;20444;-77
2022/07/21 21:45:53;;;;;;;6.47;5.47;;;29.10;51.90;;;;;;5070679;28;20032;-77
2022/07/21 21:48:20;;;;;;;9.63;6.25;;;29.10;51.90;;;;;;5070135;28;20028;-77
2022/07/21 21:50:46;;;;;;;7.00;5.45;;;29.00;51.90;;;;;;5070085;28;20402;-77
2022/07/21 21:53:12;;;;;;;8.63;5.93;;;29.00;52.00;;;;;;5064515;28;20033;-77
2022/07/21 21:55:37;;;;;;;7.82;4.45;;;28.90;52.10;;;;;;5065322;28;20528;-76
2022/07/21 21:58:07;;;;;;;11.52;6.20;;;28.90;52.00;;;;;;5055342;28;20203;-77
2022/07/21 22:00:32;;;;;;;10.95;5.85;;;29.00;51.70;;;;;;5069755;28;20050;-77
2022/07/21 22:02:58;;;;;;;10.45;5.60;;;29.00;51.60;;;;;;5071191;28;20032;-77
2022/07/21 22:05:24;;;;;;;6.97;5.38;;;29.00;51.60;;;;;;5071176;28;20028;-76
2022/07/21 22:07:50;;;;;;;13.48;6.90;;;29.00;51.60;;;;;;5070162;28;20021;-76
2022/07/21 22:10:17;;;;;;;16.05;9.75;;;28.90;51.30;;;;;;5071048;28;20025;-77
2022/07/21 22:12:43;;;;;;;19.75;10.95;;;28.90;51.20;;;;;;5069781;28;20035;-77
2022/07/21 22:15:13;;;;;;;24.55;13.65;;;28.90;51.00;;;;;;5071240;28;20390;-76
2022/07/21 22:17:39;;;;;;;19.63;13.50;;;29.00;50.80;;;;;;5071698;28;20472;-77
2022/07/21 22:20:09;;;;;;;19.90;12.55;;;28.90;50.60;;;;;;5071787;28;20103;-77
2022/07/21 22:22:34;;;;;;;18.45;11.65;;;28.90;50.70;;;;;;5071537;28;20478;-77
2022/07/21 22:25:06;;;;;;;15.52;9.73;;;28.80;50.80;;;;;;5069065;28;20032;-77
2022/07/21 22:27:32;;;;;;;13.38;8.27;;;28.80;51.00;;;;;;5069350;28;20099;-77
2022/07/21 22:29:58;;;;;;;10.25;7.30;;;28.80;51.00;;;;;;5070373;28;20025;-76
2022/07/21 22:32:27;;;;;;;8.48;5.85;;;28.70;51.00;;;;;;5070061;28;20032;-77
2022/07/21 22:34:52;;;;;;;10.23;6.90;;;28.80;50.80;;;;;;5065491;28;20095;-74
2022/07/21 22:37:18;;;;;;;11.90;9.55;;;28.80;54.00;;;;;;5054875;28;20087;-74
2022/07/21 22:39:44;;;;;;;11.80;7.95;;;29.00;56.40;;;;;;5051155;28;20028;-76
2022/07/21 22:42:10;;;;;;;17.02;9.20;;;29.00;51.40;;;;;;5051249;28;20029;-76
2022/07/21 22:44:36;;;;;;;17.85;8.43;;;29.00;51.40;;;;;;5083498;28;20021;-76
2022/07/21 22:47:02;;;;;;;10.85;7.78;;;29.00;50.60;;;;;;5050879;28;20079;-76
2022/07/21 22:49:28;;;;;;;7.45;6.45;;;29.00;50.60;;;;;;5051254;28;20490;-76
2022/07/21 22:51:54;;;;;;;13.55;7.07;;;28.80;50.90;;;;;;5050898;28;20503;-76
2022/07/21 22:54:19;;;;;;;8.88;6.15;;;28.70;51.10;;;;;;5083574;28;20017;-75
2022/07/21 22:56:45;;;;;;;12.68;7.53;;;28.60;51.30;;;;;;5050985;28;20075;-76
2022/07/21 22:59:11;;;;;;;10.18;6.40;;;28.60;51.20;;;;;;5086754;28;20032;-76
2022/07/21 23:01:37;;;;;;;9.27;5.97;;;28.60;51.20;;;;;;5071243;28;20031;-76
2022/07/21 23:04:02;;;;;;;7.82;5.60;;;28.60;51.40;;;;;;5069570;28;20067;-76
2022/07/21 23:06:28;;;;;;;9.93;5.32;;;28.60;51.40;;;;;;5071002;28;20074;-76
2022/07/21 23:08:54;;;;;;;6.72;4.78;;;28.60;51.10;;;;;;5071045;28;20052;-76
2022/07/21 23:11:20;;;;;;;6.88;4.68;;;28.60;51.20;;;;;;5070420;28;20024;-76
2022/07/21 23:13:45;;;;;;;6.10;4.72;;;28.60;51.40;;;;;;5073625;28;20044;-76
2022/07/21 23:16:11;;;;;;;8.85;5.50;;;28.50;51.50;;;;;;5073805;28;20035;-76
2022/07/21 23:18:37;;;;;;;7.10;5.43;;;28.50;51.60;;;;;;5073228;28;20025;-76
2022/07/21 23:21:03;;;;;;;8.35;5.55;;;28.50;51.70;;;;;;5073783;28;20040;-76
2022/07/21 23:23:29;;;;;;;5.10;4.55;;;28.40;51.70;;;;;;5073552;28;20027;-76
2022/07/21 23:25:54;;;;;;;5.22;4.25;;;28.40;52.00;;;;;;5073909;28;20020;-76
2022/07/21 23:28:20;;;;;;;5.50;4.03;;;28.30;52.10;;;;;;5074408;28;20508;-76
2022/07/21 23:30:46;;;;;;;5.07;3.85;;;28.30;52.20;;;;;;5074533;28;20427;-76
2022/07/21 23:33:11;;;;;;;9.70;4.28;;;28.20;52.30;;;;;;5074370;28;20056;-76
2022/07/21 23:35:38;;;;;;;6.82;4.25;;;28.20;52.60;;;;;;5072896;28;20029;-76
2022/07/21 23:38:04;;;;;;;5.60;4.18;;;28.20;52.70;;;;;;5074432;28;20027;-76
2022/07/21 23:40:29;;;;;;;6.75;4.82;;;28.10;52.70;;;;;;5074194;28;20029;-76
2022/07/21 23:42:55;;;;;;;6.93;4.70;;;28.10;52.50;;;;;;5074229;28;20047;-76
2022/07/21 23:45:21;;;;;;;10.15;4.60;;;28.20;52.40;;;;;;5074167;28;20112;-76
2022/07/21 23:47:47;;;;;;;7.00;5.40;;;28.20;52.30;;;;;;5074129;28;20024;-76
2022/07/21 23:50:13;;;;;;;7.30;4.88;;;28.20;52.30;;;;;;5074014;28;20066;-76
2022/07/21 23:52:38;;;;;;;4.38;3.92;;;28.30;52.10;;;;;;5072937;28;20509;-76
2022/07/21 23:55:05;;;;;;;7.05;5.78;;;28.30;52.30;;;;;;5072674;28;20033;-76
2022/07/21 23:57:31;;;;;;;9.23;5.47;;;28.30;52.10;;;;;;5073797;28;20036;-76
2022/07/21 23:59:57;;;;;;;5.95;4.68;;;28.30;52.10;;;;;;5072808;28;20024;-76
